Time;durP1;ratioP1;P1;durP2;ratioP2;P2;SDS_P1;SDS_P2;PMS_P1;PMS_P2;Temp;Humidity;BMP_temperature;BMP_pressure;BME280_temperature;BME280_humidity;BME280_pressure;Samples;Min_cycle;Max_cycle;Signal;HPM_P1;HPM_P2
2023/07/20 00:01:44;;;;;;;4.38;0.68;;;23.00;76.50;;;;;;5030258;28;20172;-71
2023/07/20 00:04:10;;;;;;;0.60;0.60;;;23.00;75.90;;;;;;5030314;28;20234;-71
2023/07/20 00:06:39;;;;;;;0.70;0.70;;;23.10;75.50;;;;;;5030047;28;20212;-71
2023/07/20 00:09:05;;;;;;;0.68;0.68;;;23.10;75.20;;;;;;5038927;28;20183;-71
2023/07/20 00:11:30;;;;;;;3.85;0.75;;;23.10;74.80;;;;;;5032098;28;20176;-71
2023/07/20 00:13:56;;;;;;;1.80;0.65;;;23.10;74.90;;;;;;5029291;28;20181;-72
2023/07/20 00:16:22;;;;;;;1.13;0.50;;;23.10;75.30;;;;;;5032304;28;20569;-72
2023/07/20 00:18:47;;;;;;;3.92;0.60;;;23.20;75.30;;;;;;5036558;28;20246;-72
2023/07/20 00:21:13;;;;;;;4.07;0.65;;;23.20;75.70;;;;;;5028618;28;20223;-71
2023/07/20 00:23:38;;;;;;;2.70;0.77;;;23.20;76.60;;;;;;5030742;28;20195;-72
2023/07/20 00:26:04;;;;;;;0.50;0.40;;;23.20;76.40;;;;;;5029941;28;20177;-72
2023/07/20 00:28:30;;;;;;;0.63;0.60;;;23.20;75.80;;;;;;5032795;28;20178;-72
2023/07/20 00:30:56;;;;;;;3.05;0.63;;;23.20;76.10;;;;;;5035383;28;20234;-72
2023/07/20 00:33:22;;;;;;;3.90;0.60;;;23.20;75.90;;;;;;5030723;28;20267;-71
2023/07/20 00:35:47;;;;;;;0.68;0.50;;;23.20;75.90;;;;;;5029934;28;20183;-71
2023/07/20 00:38:13;;;;;;;0.70;0.70;;;23.20;75.90;;;;;;5038238;28;20172;-71
2023/07/20 00:40:40;;;;;;;0.35;0.35;;;23.30;75.80;;;;;;5032292;28;20592;-70
2023/07/20 00:43:06;;;;;;;0.90;0.50;;;23.30;75.60;;;;;;5032409;28;20242;-71
2023/07/20 00:45:33;;;;;;;1.10;0.68;;;23.30;75.60;;;;;;5030799;28;20176;-71
2023/07/20 00:48:01;;;;;;;1.00;0.70;;;23.40;75.60;;;;;;5029983;28;20220;-71
2023/07/20 00:50:27;;;;;;;1.35;0.60;;;23.40;75.80;;;;;;5026700;28;20179;-71
2023/07/20 00:52:54;;;;;;;1.95;0.90;;;23.40;75.70;;;;;;5028207;28;20180;-70
2023/07/20 00:55:20;;;;;;;3.53;0.60;;;23.50;75.80;;;;;;5032601;28;21296;-71
2023/07/20 00:57:46;;;;;;;0.80;0.50;;;23.40;76.50;;;;;;5031974;28;20221;-71
2023/07/20 01:00:12;;;;;;;1.70;0.68;;;23.40;76.10;;;;;;5032089;28;20175;-71
2023/07/20 01:02:38;;;;;;;3.33;0.70;;;23.30;75.90;;;;;;5030014;28;20221;-71
2023/07/20 01:05:06;;;;;;;0.77;0.70;;;23.20;76.20;;;;;;5031101;28;20208;-71
2023/07/20 01:07:38;;;;;;;1.88;0.52;;;23.20;76.40;;;;;;5030028;28;20216;-71
2023/07/20 01:10:17;;;;;;;3.40;1.00;;;23.10;76.30;;;;;;5028087;28;20172;-71
2023/07/20 01:12:46;;;;;;;0.85;0.65;;;23.00;76.40;;;;;;5030777;28;20180;-71
2023/07/20 01:15:12;;;;;;;1.58;0.55;;;23.00;76.80;;;;;;5029427;28;20310;-71
2023/07/20 01:17:38;;;;;;;1.08;0.50;;;22.90;77.20;;;;;;5028300;28;20259;-71
2023/07/20 01:20:07;;;;;;;1.48;0.50;;;22.90;77.40;;;;;;5029386;28;20179;-71
2023/07/20 01:22:47;;;;;;;0.55;0.55;;;22.90;77.70;;;;;;5030637;28;20184;-71
2023/07/20 01:25:33;;;;;;;1.33;0.60;;;22.80;77.90;;;;;;5027670;28;20267;-71
2023/07/20 01:28:26;;;;;;;1.42;0.60;;;22.80;78.20;;;;;;5029425;28;20254;-71
2023/07/20 01:31:10;;;;;;;4.57;0.60;;;22.70;79.00;;;;;;5029570;28;20215;-71
2023/07/20 01:33:36;;;;;;;0.68;0.65;;;22.60;79.30;;;;;;5022722;28;20226;-71
2023/07/20 01:36:03;;;;;;;1.13;0.60;;;22.60;79.10;;;;;;5033731;28;20168;-70
2023/07/20 01:38:29;;;;;;;0.70;0.70;;;22.50;79.30;;;;;;5035578;28;20692;-71
2023/07/20 01:40:56;;;;;;;1.90;0.55;;;22.40;79.50;;;;;;5034490;28;20207;-70
2023/07/20 01:43:22;;;;;;;2.67;0.75;;;22.40;79.90;;;;;;5040386;28;20179;-71
2023/07/20 01:45:47;;;;;;;1.77;0.55;;;22.30;79.70;;;;;;5032863;28;20172;-72
2023/07/20 01:48:13;;;;;;;0.80;0.80;;;22.30;80.00;;;;;;5032843;28;20206;-71
2023/07/20 01:50:39;;;;;;;0.70;0.70;;;22.30;80.00;;;;;;5032903;28;20869;-71
2023/07/20 01:53:04;;;;;;;2.60;0.63;;;22.20;80.30;;;;;;5030805;28;20730;-71
2023/07/20 01:55:30;;;;;;;4.78;1.00;;;22.20;80.50;;;;;;5032557;28;20184;-71
2023/07/20 01:57:56;;;;;;;0.73;0.40;;;22.10;80.70;;;;;;5023394;28;20231;-70
2023/07/20 02:00:24;;;;;;;3.15;0.50;;;22.10;80.50;;;;;;5031550;28;20267;-71
2023/07/20 02:02:50;;;;;;;2.25;0.70;;;22.10;80.90;;;;;;5037892;28;20176;-71
2023/07/20 02:05:16;;;;;;;1.80;0.80;;;22.00;80.80;;;;;;5037153;28;20200;-71
2023/07/20 02:07:42;;;;;;;2.95;0.70;;;22.00;80.80;;;;;;5026876;28;20220;-71
2023/07/20 02:10:09;;;;;;;0.73;0.70;;;22.00;81.00;;;;;;5031696;28;20256;-71
2023/07/20 02:12:34;;;;;;;0.50;0.50;;;22.00;80.90;;;;;;5032522;28;20234;-70
2023/07/20 02:15:01;;;;;;;1.35;0.50;;;21.90;80.80;;;;;;5037227;28;20659;-71
2023/07/20 02:17:26;;;;;;;1.77;0.88;;;21.90;81.10;;;;;;5032612;28;20176;-70
2023/07/20 02:19:57;;;;;;;1.77;0.57;;;21.90;81.30;;;;;;5030400;28;20187;-71
2023/07/20 02:22:23;;;;;;;1.75;0.68;;;21.90;80.60;;;;;;5032763;28;20184;-71
2023/07/20 02:24:50;;;;;;;0.88;0.73;;;21.80;81.30;;;;;;5024716;28;20206;-71
2023/07/20 02:27:15;;;;;;;0.70;0.68;;;21.80;81.00;;;;;;5032220;28;20258;-70
2023/07/20 02:29:41;;;;;;;3.33;0.60;;;21.80;81.10;;;;;;5032038;28;20634;-71
2023/07/20 02:32:09;;;;;;;2.15;0.57;;;21.80;81.30;;;;;;5031157;28;20275;-71
2023/07/20 02:34:35;;;;;;;0.85;0.60;;;21.70;81.50;;;;;;5032206;28;20184;-71
2023/07/20 02:37:01;;;;;;;1.83;0.65;;;21.70;81.30;;;;;;5028135;28;20750;-70
2023/07/20 02:39:30;;;;;;;1.15;0.57;;;21.70;81.30;;;;;;5034326;28;20173;-71
2023/07/20 02:41:56;;;;;;;5.07;0.90;;;21.70;81.20;;;;;;5028906;28;20180;-71
2023/07/20 02:44:21;;;;;;;0.70;0.70;;;21.70;82.60;;;;;;5034710;28;20262;-70
2023/07/20 02:46:49;;;;;;;1.23;0.52;;;21.60;82.10;;;;;;5029809;28;20300;-71
2023/07/20 02:49:15;;;;;;;2.00;0.68;;;21.30;85.20;;;;;;5027224;28;20169;-71
2023/07/20 02:51:41;;;;;;;2.35;0.90;;;21.30;85.60;;;;;;5030248;28;20246;-70
2023/07/20 02:54:08;;;;;;;1.75;0.77;;;21.20;83.30;;;;;;5033983;28;20784;-70
2023/07/20 02:56:34;;;;;;;0.98;0.88;;;21.20;85.50;;;;;;5033540;28;20176;-70
2023/07/20 02:59:01;;;;;;;2.15;1.00;;;21.20;83.60;;;;;;5030723;28;20178;-70
2023/07/20 03:01:29;;;;;;;4.68;1.30;;;21.30;83.30;;;;;;5031467;28;20180;-71
2023/07/20 03:03:55;;;;;;;1.60;0.70;;;21.30;83.60;;;;;;5030074;28;20223;-70
2023/07/20 03:06:20;;;;;;;0.93;0.73;;;21.30;83.40;;;;;;5032202;28;20224;-70
2023/07/20 03:08:51;;;;;;;0.75;0.75;;;21.30;83.50;;;;;;5025528;28;20191;-71
2023/07/20 03:11:20;;;;;;;1.20;0.85;;;21.30;83.30;;;;;;5028982;28;20697;-72
2023/07/20 03:13:46;;;;;;;2.53;0.68;;;21.30;83.60;;;;;;5028822;28;20184;-71
2023/07/20 03:16:15;;;;;;;2.75;0.80;;;21.30;83.20;;;;;;5029484;28;20654;-71
2023/07/20 03:18:41;;;;;;;1.88;0.82;;;21.30;83.30;;;;;;5028868;28;20183;-71
2023/07/20 03:21:11;;;;;;;2.08;0.90;;;21.30;83.20;;;;;;5037225;28;20183;-72
2023/07/20 03:23:37;;;;;;;0.73;0.73;;;21.30;83.50;;;;;;5028957;28;20607;-70
2023/07/20 03:26:02;;;;;;;4.68;0.63;;;21.30;83.90;;;;;;5030440;28;20230;-70
2023/07/20 03:28:28;;;;;;;2.47;0.82;;;21.20;84.90;;;;;;5037738;28;20194;-70
2023/07/20 03:30:58;;;;;;;1.35;0.75;;;21.20;83.80;;;;;;5033492;28;20188;-71
2023/07/20 03:33:28;;;;;;;2.03;1.10;;;21.20;83.70;;;;;;5026311;28;20207;-70
2023/07/20 03:35:54;;;;;;;1.58;1.00;;;21.20;85.60;;;;;;5035397;28;20180;-70
2023/07/20 03:38:20;;;;;;;1.98;0.95;;;21.10;86.20;;;;;;5030642;28;20283;-70
2023/07/20 03:40:51;;;;;;;5.53;0.85;;;20.90;87.10;;;;;;5031891;28;20184;-70
2023/07/20 03:43:17;;;;;;;0.90;0.90;;;20.80;86.10;;;;;;5033767;28;20176;-70
2023/07/20 03:45:43;;;;;;;0.82;0.82;;;20.80;85.40;;;;;;5032335;28;20210;-71
2023/07/20 03:48:08;;;;;;;6.70;0.95;;;20.90;84.90;;;;;;5032169;28;20223;-71
2023/07/20 03:50:34;;;;;;;3.22;1.02;;;21.00;84.80;;;;;;5028924;28;20176;-71
2023/07/20 03:53:00;;;;;;;2.20;0.90;;;21.00;84.40;;;;;;5035317;28;20267;-70
2023/07/20 03:55:25;;;;;;;1.80;0.93;;;21.10;84.20;;;;;;5031134;28;20172;-71
2023/07/20 03:57:51;;;;;;;2.55;0.90;;;21.20;84.40;;;;;;5027771;28;20250;-70
2023/07/20 04:00:17;;;;;;;0.80;0.80;;;21.10;86.50;;;;;;5036093;28;20246;-70
2023/07/20 04:02:43;;;;;;;2.03;0.80;;;21.00;85.20;;;;;;5026751;28;20264;-70
2023/07/20 04:05:09;;;;;;;0.93;0.93;;;21.10;84.40;;;;;;5026126;28;20280;-71
2023/07/20 04:07:35;;;;;;;1.10;0.80;;;21.10;86.10;;;;;;5028200;28;20216;-71
2023/07/20 04:10:01;;;;;;;3.30;0.73;;;20.90;87.10;;;;;;5028468;28;20626;-71
2023/07/20 04:12:26;;;;;;;1.67;0.70;;;20.90;85.70;;;;;;5025885;28;20263;-71
2023/07/20 04:14:52;;;;;;;1.55;1.05;;;21.00;84.90;;;;;;5028303;28;20241;-69
2023/07/20 04:17:18;;;;;;;2.70;0.85;;;21.00;86.60;;;;;;5028951;28;20180;-70
2023/07/20 04:19:44;;;;;;;1.85;1.00;;;21.00;84.80;;;;;;5029139;28;20179;-71
2023/07/20 04:22:10;;;;;;;4.47;0.98;;;21.20;84.30;;;;;;5030376;28;20188;-71
2023/07/20 04:24:35;;;;;;;4.57;1.10;;;21.20;84.40;;;;;;5028236;28;20644;-70
2023/07/20 04:27:01;;;;;;;2.42;1.38;;;21.30;84.60;;;;;;5028618;28;20220;-71
2023/07/20 04:29:27;;;;;;;3.33;1.20;;;21.40;84.70;;;;;;5030046;28;20173;-70
2023/07/20 04:31:52;;;;;;;0.85;0.82;;;21.40;84.80;;;;;;5032534;28;20173;-71
2023/07/20 04:34:18;;;;;;;1.17;1.15;;;21.50;84.80;;;;;;5028368;28;20638;-71
2023/07/20 04:36:44;;;;;;;0.70;0.70;;;21.60;84.80;;;;;;5030275;28;20180;-71
2023/07/20 04:39:10;;;;;;;3.40;0.75;;;21.60;84.90;;;;;;5029568;28;20172;-71
2023/07/20 04:41:36;;;;;;;2.17;1.00;;;21.70;84.90;;;;;;5030326;28;20180;-71
2023/07/20 04:44:01;;;;;;;1.85;0.90;;;21.70;84.90;;;;;;5031171;28;20657;-74
2023/07/20 04:46:27;;;;;;;3.40;1.20;;;21.70;84.70;;;;;;5033236;28;20294;-74
2023/07/20 04:48:53;;;;;;;2.15;0.77;;;21.80;84.60;;;;;;5031852;28;20234;-74
2023/07/20 04:51:20;;;;;;;2.25;0.70;;;21.80;84.30;;;;;;5031005;28;20649;-74
2023/07/20 04:53:47;;;;;;;1.35;0.80;;;21.90;84.30;;;;;;5030329;28;20177;-73
2023/07/20 04:56:12;;;;;;;1.67;1.17;;;21.90;84.20;;;;;;5030894;28;20223;-73
2023/07/20 04:58:38;;;;;;;1.35;1.02;;;22.00;84.20;;;;;;5026194;28;20241;-73
2023/07/20 05:01:04;;;;;;;0.85;0.85;;;22.00;84.00;;;;;;5031237;28;20245;-73
2023/07/20 05:03:29;;;;;;;0.80;0.80;;;22.10;83.80;;;;;;5040010;28;20168;-73
2023/07/20 05:05:55;;;;;;;2.92;0.90;;;22.10;83.90;;;;;;5031612;28;20230;-73
2023/07/20 05:08:22;;;;;;;2.17;0.93;;;22.20;83.70;;;;;;5034379;28;20278;-73
2023/07/20 05:10:48;;;;;;;1.00;0.95;;;22.20;83.20;;;;;;5033931;28;20168;-73
2023/07/20 05:13:14;;;;;;;1.50;1.13;;;22.20;84.00;;;;;;5039336;28;20719;-73
2023/07/20 05:15:39;;;;;;;1.00;1.00;;;22.30;82.70;;;;;;5033574;28;20176;-73
2023/07/20 05:18:05;;;;;;;2.30;0.82;;;22.30;83.20;;;;;;5033134;28;20187;-74
2023/07/20 05:20:33;;;;;;;1.48;0.80;;;22.30;81.90;;;;;;5033256;28;20236;-73
2023/07/20 05:22:59;;;;;;;3.15;1.42;;;22.30;82.30;;;;;;5034408;28;20259;-73
2023/07/20 05:25:24;;;;;;;0.98;0.98;;;22.40;82.80;;;;;;5035607;28;20172;-73
2023/07/20 05:27:50;;;;;;;5.10;1.30;;;22.50;82.00;;;;;;5033635;28;20291;-74
2023/07/20 05:30:16;;;;;;;1.05;0.80;;;22.60;82.50;;;;;;5033729;28;20737;-74
2023/07/20 05:32:42;;;;;;;2.05;0.68;;;22.60;82.40;;;;;;5034757;28;20188;-74
2023/07/20 05:35:08;;;;;;;3.80;0.82;;;22.70;81.60;;;;;;5033130;28;20169;-74
2023/07/20 05:37:34;;;;;;;4.28;1.20;;;22.70;81.40;;;;;;5036821;28;20868;-74
2023/07/20 05:40:00;;;;;;;2.38;0.82;;;22.80;82.40;;;;;;5035004;28;20275;-73
2023/07/20 05:42:25;;;;;;;2.17;1.02;;;22.80;80.80;;;;;;5038297;28;20185;-73
2023/07/20 05:44:52;;;;;;;1.08;0.90;;;22.80;80.40;;;;;;5039292;28;20191;-74
2023/07/20 05:47:18;;;;;;;0.93;0.93;;;22.90;80.20;;;;;;5032891;28;20211;-73
2023/07/20 05:49:44;;;;;;;1.20;1.10;;;22.90;79.90;;;;;;5031469;28;20642;-73
2023/07/20 05:52:10;;;;;;;5.47;1.38;;;22.90;80.50;;;;;;5029679;28;20184;-72
2023/07/20 05:54:35;;;;;;;0.77;0.77;;;23.00;80.20;;;;;;5031709;28;20238;-72
2023/07/20 05:57:01;;;;;;;1.17;1.13;;;23.10;80.00;;;;;;5031659;28;20716;-72
2023/07/20 05:59:29;;;;;;;1.60;1.00;;;23.10;79.80;;;;;;5030437;28;20181;-71
2023/07/20 06:01:55;;;;;;;1.70;1.10;;;23.20;79.20;;;;;;5028365;28;20230;-75
2023/07/20 06:04:20;;;;;;;4.53;1.08;;;23.30;79.60;;;;;;5027943;28;20275;-73
2023/07/20 06:06:46;;;;;;;4.13;1.02;;;23.30;79.00;;;;;;5031714;28;20701;-73
2023/07/20 06:09:12;;;;;;;3.33;1.38;;;23.40;78.40;;;;;;5030697;28;20569;-73
2023/07/20 06:11:40;;;;;;;4.65;1.00;;;23.40;78.70;;;;;;5025157;28;20180;-73
2023/07/20 06:14:06;;;;;;;2.63;1.08;;;23.50;78.10;;;;;;5029984;28;20180;-75
2023/07/20 06:16:32;;;;;;;2.90;1.10;;;23.60;78.30;;;;;;5032447;28;20544;-74
2023/07/20 06:18:59;;;;;;;1.30;1.00;;;23.60;78.20;;;;;;5032521;28;20677;-74
2023/07/20 06:21:25;;;;;;;1.55;1.08;;;23.70;78.20;;;;;;5031841;28;20182;-73
2023/07/20 06:23:51;;;;;;;4.35;1.20;;;23.60;77.20;;;;;;5031018;28;20271;-73
2023/07/20 06:26:16;;;;;;;2.03;1.08;;;23.50;77.30;;;;;;5032006;28;20268;-73
2023/07/20 06:28:42;;;;;;;2.13;1.02;;;23.60;77.50;;;;;;5024615;28;20208;-73
2023/07/20 06:31:07;;;;;;;1.10;0.88;;;23.60;78.10;;;;;;5031991;28;20603;-73
2023/07/20 06:33:34;;;;;;;1.35;1.10;;;23.70;77.20;;;;;;5032203;28;20666;-73
2023/07/20 06:36:00;;;;;;;1.35;1.13;;;23.90;77.20;;;;;;5031875;28;20169;-74
2023/07/20 06:38:25;;;;;;;1.30;1.20;;;23.90;76.90;;;;;;5032183;28;20238;-72
2023/07/20 06:40:51;;;;;;;3.55;1.25;;;23.90;75.90;;;;;;5031874;28;20211;-72
2023/07/20 06:43:17;;;;;;;1.40;0.90;;;23.90;76.30;;;;;;5031564;28;20172;-74
2023/07/20 06:45:43;;;;;;;1.00;1.00;;;24.00;76.10;;;;;;5031569;28;20179;-74
2023/07/20 06:48:09;;;;;;;2.53;1.00;;;24.10;76.60;;;;;;5031584;28;20212;-74
2023/07/20 06:50:35;;;;;;;4.78;1.10;;;24.20;76.30;;;;;;5031244;28;20633;-74
2023/07/20 06:53:03;;;;;;;1.52;1.42;;;24.30;76.50;;;;;;5034754;28;20180;-74
2023/07/20 06:55:29;;;;;;;4.05;1.50;;;24.40;76.50;;;;;;5031351;28;20164;-74
2023/07/20 06:57:55;;;;;;;1.38;1.20;;;24.60;76.50;;;;;;5031652;28;20195;-74
2023/07/20 07:00:21;;;;;;;6.93;1.50;;;24.80;76.50;;;;;;5031180;28;20172;-74
2023/07/20 07:02:46;;;;;;;4.30;1.90;;;25.00;76.90;;;;;;5031213;28;20176;-74
2023/07/20 07:05:14;;;;;;;3.22;1.50;;;25.10;76.00;;;;;;5032877;28;20953;-72
2023/07/20 07:07:40;;;;;;;3.22;1.52;;;25.30;75.40;;;;;;5031645;28;20204;-73
2023/07/20 07:10:06;;;;;;;6.43;1.70;;;25.60;74.40;;;;;;5031004;28;20328;-73
2023/07/20 07:12:32;;;;;;;1.50;1.40;;;25.80;73.60;;;;;;5030227;28;20183;-73
2023/07/20 07:14:58;;;;;;;7.13;2.05;;;26.00;73.60;;;;;;5031113;28;20591;-73
2023/07/20 07:17:24;;;;;;;2.10;1.85;;;26.20;73.20;;;;;;5031319;28;20188;-73
2023/07/20 07:19:54;;;;;;;6.53;2.40;;;26.30;74.00;;;;;;5030995;28;20630;-73
2023/07/20 07:22:21;;;;;;;5.13;2.80;;;26.40;73.20;;;;;;5030965;28;20235;-73
2023/07/20 07:24:47;;;;;;;6.32;2.10;;;26.50;73.30;;;;;;5030782;28;20551;-73
2023/07/20 07:27:12;;;;;;;3.60;1.73;;;26.60;72.10;;;;;;5030860;28;20211;-73
2023/07/20 07:29:38;;;;;;;1.98;1.63;;;26.60;72.60;;;;;;5030542;28;20179;-73
2023/07/20 07:32:04;;;;;;;4.28;1.90;;;26.60;72.00;;;;;;5028163;28;20176;-73
2023/07/20 07:34:30;;;;;;;11.65;2.40;;;26.70;73.10;;;;;;5018407;28;20182;-74
2023/07/20 07:36:56;;;;;;;7.78;1.77;;;26.70;72.80;;;;;;5023727;28;20180;-72
2023/07/20 07:39:21;;;;;;;1.35;1.35;;;26.70;72.60;;;;;;5027474;28;20283;-72
2023/07/20 07:41:47;;;;;;;11.05;2.20;;;26.70;73.00;;;;;;5027399;28;20183;-71
2023/07/20 07:44:13;;;;;;;7.00;2.22;;;26.70;72.50;;;;;;5030275;28;20263;-73
2023/07/20 07:46:39;;;;;;;11.05;2.50;;;26.80;72.80;;;;;;5027143;28;20208;-73
2023/07/20 07:49:04;;;;;;;4.10;2.38;;;26.80;72.40;;;;;;5026769;28;20173;-72
2023/07/20 07:51:30;;;;;;;4.72;1.63;;;26.80;72.40;;;;;;5025876;28;20187;-72
2023/07/20 07:53:56;;;;;;;5.53;1.80;;;26.90;72.20;;;;;;5023696;28;20213;-72
2023/07/20 07:56:22;;;;;;;6.40;1.70;;;26.90;71.80;;;;;;5030918;28;20544;-73
2023/07/20 07:58:51;;;;;;;9.32;1.70;;;27.00;71.60;;;;;;5028828;28;20184;-73
2023/07/20 08:01:18;;;;;;;1.83;1.73;;;27.00;71.70;;;;;;5028540;28;20184;-73
2023/07/20 08:03:47;;;;;;;2.53;1.67;;;27.00;71.80;;;;;;5030679;28;20180;-73
2023/07/20 08:06:13;;;;;;;2.67;1.50;;;27.10;71.90;;;;;;5030131;28;20203;-73
2023/07/20 08:08:39;;;;;;;2.83;1.70;;;27.10;71.50;;;;;;5028872;28;21458;-73
2023/07/20 08:11:04;;;;;;;1.58;1.38;;;27.00;71.90;;;;;;5026773;28;20187;-71
2023/07/20 08:13:31;;;;;;;3.08;1.52;;;27.10;71.90;;;;;;5029003;28;20188;-71
2023/07/20 08:15:56;;;;;;;3.72;1.70;;;27.00;71.70;;;;;;5023952;28;20593;-71
2023/07/20 08:18:22;;;;;;;4.15;1.77;;;27.10;71.90;;;;;;5029707;28;20180;-71
2023/07/20 08:20:54;;;;;;;6.60;1.92;;;27.20;72.30;;;;;;5029852;28;20181;-72
2023/07/20 08:23:20;;;;;;;1.20;1.20;;;27.10;73.00;;;;;;5026999;28;20216;-71
2023/07/20 08:25:46;;;;;;;3.50;1.35;;;27.10;73.30;;;;;;5028755;28;20187;-71
2023/07/20 08:28:16;;;;;;;6.00;1.33;;;27.00;73.30;;;;;;5027921;28;20207;-71
2023/07/20 08:30:46;;;;;;;2.72;1.33;;;26.90;73.00;;;;;;5027355;28;20188;-71
2023/07/20 08:33:20;;;;;;;3.72;1.05;;;26.70;72.30;;;;;;5028779;28;20183;-71
2023/07/20 08:35:46;;;;;;;3.25;1.40;;;26.60;72.60;;;;;;5029959;28;20191;-71
2023/07/20 08:38:12;;;;;;;3.08;1.10;;;26.30;71.90;;;;;;5029956;28;20176;-71
2023/07/20 08:40:56;;;;;;;1.80;1.05;;;26.30;71.90;;;;;;5028362;28;20181;-71
2023/07/20 08:43:26;;;;;;;2.65;0.82;;;26.40;70.90;;;;;;5024154;28;20559;-71
2023/07/20 08:45:55;;;;;;;1.92;0.98;;;26.40;70.80;;;;;;5027339;28;20239;-71
2023/07/20 08:48:21;;;;;;;2.17;1.52;;;26.50;70.00;;;;;;5029400;28;20886;-70
2023/07/20 08:50:50;;;;;;;3.28;1.70;;;26.50;70.50;;;;;;5030085;28;20181;-71
2023/07/20 08:53:16;;;;;;;2.67;1.00;;;26.50;70.60;;;;;;5021902;28;20184;-71
2023/07/20 08:55:45;;;;;;;7.35;1.20;;;26.60;70.40;;;;;;5029796;28;20188;-71
2023/07/20 08:58:14;;;;;;;4.32;1.00;;;26.70;69.90;;;;;;5027079;28;20196;-70
2023/07/20 09:00:41;;;;;;;4.05;0.90;;;26.90;69.50;;;;;;5027039;28;20184;-72
2023/07/20 09:03:08;;;;;;;5.97;0.95;;;27.00;69.10;;;;;;5029523;28;20234;-69
2023/07/20 09:05:35;;;;;;;2.42;1.08;;;26.90;68.60;;;;;;5027995;28;20172;-69
2023/07/20 09:08:03;;;;;;;1.48;1.20;;;26.90;68.40;;;;;;5029413;28;20215;-70
2023/07/20 09:10:29;;;;;;;2.75;0.95;;;27.10;68.40;;;;;;5019356;28;20207;-72
2023/07/20 09:12:55;;;;;;;2.25;1.05;;;27.00;68.60;;;;;;5029633;28;20640;-70
2023/07/20 09:15:22;;;;;;;2.85;1.17;;;27.00;68.50;;;;;;5024876;28;20627;-70
2023/07/20 09:17:49;;;;;;;2.35;0.82;;;27.00;68.70;;;;;;5029501;28;20187;-70
2023/07/20 09:20:18;;;;;;;1.65;0.82;;;27.00;69.00;;;;;;5022365;28;20737;-70
2023/07/20 09:22:44;;;;;;;2.35;0.93;;;27.20;68.40;;;;;;5029221;28;20614;-70
2023/07/20 09:25:15;;;;;;;4.03;1.15;;;27.30;67.60;;;;;;5029295;28;20179;-70
2023/07/20 09:27:46;;;;;;;2.17;0.70;;;27.50;67.20;;;;;;5029126;28;20208;-70
2023/07/20 09:30:14;;;;;;;5.95;0.85;;;27.50;66.10;;;;;;5029354;28;20192;-70
2023/07/20 09:32:44;;;;;;;2.30;0.98;;;27.40;65.90;;;;;;5029231;28;20271;-70
2023/07/20 09:35:18;;;;;;;2.92;1.05;;;27.30;66.30;;;;;;5029043;28;20171;-70
2023/07/20 09:37:59;;;;;;;0.75;0.70;;;27.50;65.90;;;;;;5023286;28;20271;-70
2023/07/20 09:40:26;;;;;;;1.35;0.80;;;27.40;65.30;;;;;;5024921;28;20172;-71
2023/07/20 09:43:00;;;;;;;0.75;0.63;;;27.50;64.80;;;;;;5029021;28;20182;-70
2023/07/20 09:45:42;;;;;;;1.17;0.90;;;27.60;64.20;;;;;;5023715;28;20175;-70
2023/07/20 09:48:09;;;;;;;3.80;1.02;;;27.60;63.80;;;;;;5020720;28;20259;-70
2023/07/20 09:50:41;;;;;;;1.85;0.93;;;27.80;65.10;;;;;;5029013;28;20212;-70
2023/07/20 09:53:09;;;;;;;0.70;0.70;;;28.00;64.60;;;;;;5027647;28;20172;-70
2023/07/20 09:55:35;;;;;;;1.15;0.65;;;28.20;63.80;;;;;;5029881;28;20680;-70
2023/07/20 09:58:02;;;;;;;0.80;0.80;;;28.50;62.90;;;;;;5032936;28;20211;-70
2023/07/20 10:00:28;;;;;;;2.97;0.88;;;28.90;62.80;;;;;;5029445;28;20688;-70
2023/07/20 10:02:56;;;;;;;0.98;0.77;;;29.20;60.50;;;;;;5033116;28;20704;-71
2023/07/20 10:05:22;;;;;;;4.20;0.73;;;29.40;60.80;;;;;;5032916;28;20180;-71
2023/07/20 10:07:49;;;;;;;1.65;0.73;;;29.40;60.80;;;;;;5032506;28;20270;-70
2023/07/20 10:10:17;;;;;;;0.73;0.65;;;29.30;60.60;;;;;;5032273;28;20204;-70
2023/07/20 10:12:50;;;;;;;7.30;0.70;;;29.40;60.90;;;;;;5032483;28;20211;-70
2023/07/20 10:15:27;;;;;;;1.60;1.10;;;29.40;60.70;;;;;;5032271;28;20207;-70
2023/07/20 10:18:23;;;;;;;2.47;0.80;;;29.10;61.60;;;;;;5028081;28;20184;-70
2023/07/20 10:20:51;;;;;;;3.03;1.05;;;29.00;61.60;;;;;;5032497;28;20633;-70
2023/07/20 10:23:17;;;;;;;0.80;0.80;;;29.00;61.90;;;;;;5032045;28;20638;-70
2023/07/20 10:25:44;;;;;;;0.60;0.60;;;29.10;61.70;;;;;;5025633;28;20200;-70
2023/07/20 10:28:11;;;;;;;2.15;0.85;;;29.20;60.90;;;;;;5031919;28;20571;-70
2023/07/20 10:30:37;;;;;;;2.80;0.63;;;29.40;61.10;;;;;;5024979;28;20184;-71
2023/07/20 10:33:04;;;;;;;1.23;0.80;;;29.50;60.80;;;;;;5031147;28;20210;-70
2023/07/20 10:35:30;;;;;;;1.85;0.70;;;29.80;60.60;;;;;;5027947;28;20172;-70
2023/07/20 10:38:04;;;;;;;4.47;0.60;;;30.00;59.00;;;;;;5031972;28;20176;-70
2023/07/20 10:40:38;;;;;;;2.92;0.90;;;30.00;59.30;;;;;;5022080;28;20190;-70
2023/07/20 10:43:09;;;;;;;2.05;0.70;;;30.10;59.60;;;;;;5032363;28;20185;-70
2023/07/20 10:45:41;;;;;;;6.50;0.65;;;30.10;60.50;;;;;;5031695;28;20214;-70
2023/07/20 10:48:14;;;;;;;2.63;1.10;;;30.00;60.30;;;;;;5028785;28;20263;-70
2023/07/20 10:50:40;;;;;;;0.57;0.57;;;30.10;60.50;;;;;;5030991;28;20200;-71
2023/07/20 10:53:17;;;;;;;0.63;0.63;;;30.20;60.20;;;;;;5030611;28;20215;-69
2023/07/20 10:55:50;;;;;;;3.03;0.90;;;30.20;59.10;;;;;;5035371;28;20591;-70
2023/07/20 10:58:17;;;;;;;0.95;0.80;;;30.20;60.00;;;;;;5027624;28;20204;-70
2023/07/20 11:00:59;;;;;;;2.45;0.80;;;30.30;59.80;;;;;;5021191;28;20184;-70
2023/07/20 11:03:32;;;;;;;1.30;0.68;;;30.50;59.20;;;;;;5036743;28;20184;-70
2023/07/20 11:05:59;;;;;;;1.90;0.60;;;30.60;58.80;;;;;;5022381;28;20646;-73
2023/07/20 11:08:42;;;;;;;1.42;1.33;;;30.80;60.30;;;;;;5029696;28;20689;-72
2023/07/20 11:11:31;;;;;;;4.28;1.20;;;31.00;61.40;;;;;;5031339;28;20180;-72
2023/07/20 11:13:59;;;;;;;1.83;0.95;;;31.30;59.70;;;;;;5030724;28;20676;-72
2023/07/20 11:16:39;;;;;;;0.80;0.80;;;31.80;59.70;;;;;;5028456;28;20598;-70
2023/07/20 11:19:05;;;;;;;1.85;0.70;;;32.30;57.90;;;;;;5026458;28;20187;-73
2023/07/20 11:21:40;;;;;;;1.88;1.08;;;32.80;58.20;;;;;;5030956;28;20186;-73
2023/07/20 11:24:07;;;;;;;4.38;1.00;;;33.30;57.30;;;;;;5024937;28;20229;-73
2023/07/20 11:26:50;;;;;;;2.25;0.90;;;34.10;55.60;;;;;;5031484;28;20211;-72
2023/07/20 11:29:17;;;;;;;2.47;1.05;;;34.60;55.30;;;;;;5022520;28;20562;-73
2023/07/20 11:31:44;;;;;;;0.80;0.80;;;34.90;55.30;;;;;;5026953;28;20640;-73
2023/07/20 11:34:21;;;;;;;1.40;0.73;;;35.30;54.20;;;;;;5030134;28;20203;-74
2023/07/20 11:36:48;;;;;;;2.80;0.93;;;35.80;55.10;;;;;;5029592;28;20187;-74
2023/07/20 11:39:15;;;;;;;3.28;0.90;;;36.20;53.50;;;;;;5021281;28;20187;-75
2023/07/20 11:41:47;;;;;;;1.08;1.08;;;36.80;52.10;;;;;;5025850;28;20183;-75
2023/07/20 11:44:14;;;;;;;2.17;1.17;;;37.50;50.90;;;;;;5023633;28;20542;-74
2023/07/20 11:46:42;;;;;;;2.00;1.50;;;38.30;49.90;;;;;;5024545;28;20199;-73
2023/07/20 11:49:07;;;;;;;2.58;1.20;;;38.70;49.90;;;;;;5025258;28;20183;-74
2023/07/20 11:51:34;;;;;;;2.90;1.38;;;39.00;50.00;;;;;;5027032;28;20167;-74
2023/07/20 11:54:02;;;;;;;1.50;1.40;;;39.40;49.60;;;;;;5028125;28;20237;-74
2023/07/20 11:56:28;;;;;;;4.05;1.50;;;40.00;48.00;;;;;;5030257;28;20172;-73
2023/07/20 11:59:01;;;;;;;2.25;1.65;;;40.40;46.80;;;;;;5034054;28;20254;-73
2023/07/20 12:01:29;;;;;;;2.58;1.83;;;40.60;47.40;;;;;;5029514;28;20188;-74
2023/07/20 12:04:04;;;;;;;1.40;1.30;;;40.90;47.60;;;;;;5029728;28;20258;-74
2023/07/20 12:06:31;;;;;;;2.38;1.30;;;41.20;47.30;;;;;;5030233;28;20175;-74
2023/07/20 12:08:58;;;;;;;4.43;1.65;;;41.80;45.80;;;;;;5020612;28;20180;-73
2023/07/20 12:11:33;;;;;;;3.38;2.13;;;42.10;47.00;;;;;;5024030;28;20180;-74
2023/07/20 12:13:59;;;;;;;1.42;1.30;;;42.50;45.90;;;;;;5022670;28;20186;-74
2023/07/20 12:16:28;;;;;;;5.38;1.35;;;43.00;43.20;;;;;;5030888;28;20171;-74
2023/07/20 12:19:00;;;;;;;6.68;1.60;;;43.30;45.30;;;;;;5029166;28;20172;-74
2023/07/20 12:21:26;;;;;;;14.30;1.50;;;43.60;44.60;;;;;;5029259;28;20176;-74
2023/07/20 12:23:52;;;;;;;5.68;1.23;;;43.40;42.60;;;;;;5028448;28;20183;-74
2023/07/20 12:26:17;;;;;;;4.80;1.65;;;43.50;45.10;;;;;;5029025;28;20175;-74
2023/07/20 12:28:43;;;;;;;5.38;1.52;;;43.70;43.80;;;;;;5030420;28;20195;-74
2023/07/20 12:31:10;;;;;;;5.28;1.50;;;43.60;44.60;;;;;;5024982;28;20180;-74
2023/07/20 12:33:39;;;;;;;1.40;1.15;;;43.90;43.40;;;;;;5029435;28;20191;-75
2023/07/20 12:36:05;;;;;;;2.17;1.63;;;44.00;43.80;;;;;;5029230;28;20207;-75
2023/07/20 12:38:31;;;;;;;2.55;1.38;;;43.60;42.70;;;;;;5032714;28;20222;-74
2023/07/20 12:40:58;;;;;;;3.28;0.98;;;43.70;43.80;;;;;;5031482;28;20211;-74
2023/07/20 12:43:24;;;;;;;1.98;1.33;;;43.80;42.60;;;;;;5027017;28;20237;-74
2023/07/20 12:45:49;;;;;;;1.33;1.15;;;43.90;40.70;;;;;;5028605;28;20756;-74
2023/07/20 12:48:15;;;;;;;1.55;1.45;;;43.60;40.00;;;;;;5035953;28;20202;-74